sensor_id;sensor_type;location;lat;lon;timestamp;P1;durP1;ratioP1;P2;durP2;ratioP2
2684;SDS011;1352;48.446;9.156;2022-10-31T00:00:43;7.70;;;4.63;;
2684;SDS011;1352;48.446;9.156;2022-10-31T00:03:11;10.77;;;4.80;;
2684;SDS011;1352;48.446;9.156;2022-10-31T00:05:40;17.90;;;5.70;;
2684;SDS011;1352;48.446;9.156;2022-10-31T00:08:07;5.30;;;4.20;;
2684;SDS011;1352;48.446;9.156;2022-10-31T00:10:36;4.87;;;3.80;;
2684;SDS011;1352;48.446;9.156;2022-10-31T00:13:04;5.30;;;4.10;;
2684;SDS011;1352;48.446;9.156;2022-10-31T00:15:32;7.27;;;4.03;;
2684;SDS011;1352;48.446;9.156;2022-10-31T00:17:59;4.83;;;4.30;;
2684;SDS011;1352;48.446;9.156;2022-10-31T00:20:27;9.47;;;5.30;;
2684;SDS011;1352;48.446;9.156;2022-10-31T00:22:57;12.97;;;4.50;;
2684;SDS011;1352;48.446;9.156;2022-10-31T00:25:24;6.60;;;3.57;;
2684;SDS011;1352;48.446;9.156;2022-10-31T00:27:51;8.37;;;5.70;;
2684;SDS011;1352;48.446;9.156;2022-10-31T00:30:18;7.10;;;4.40;;
2684;SDS011;1352;48.446;9.156;2022-10-31T00:32:45;4.77;;;3.90;;
2684;SDS011;1352;48.446;9.156;2022-10-31T00:35:12;6.43;;;3.83;;
2684;SDS011;1352;48.446;9.156;2022-10-31T00:37:41;7.40;;;4.00;;
2684;SDS011;1352;48.446;9.156;2022-10-31T00:40:09;7.47;;;4.40;;
2684;SDS011;1352;48.446;9.156;2022-10-31T00:42:38;8.03;;;4.50;;
2684;SDS011;1352;48.446;9.156;2022-10-31T00:45:07;5.87;;;4.80;;
2684;SDS011;1352;48.446;9.156;2022-10-31T00:47:34;9.50;;;4.10;;
2684;SDS011;1352;48.446;9.156;2022-10-31T00:50:02;7.40;;;4.07;;
2684;SDS011;1352;48.446;9.156;2022-10-31T00:52:29;10.90;;;4.63;;
2684;SDS011;1352;48.446;9.156;2022-10-31T00:54:58;7.17;;;3.57;;
2684;SDS011;1352;48.446;9.156;2022-10-31T00:57:24;8.27;;;3.70;;
2684;SDS011;1352;48.446;9.156;2022-10-31T00:59:51;6.27;;;4.37;;
2684;SDS011;1352;48.446;9.156;2022-10-31T01:02:18;6.40;;;4.10;;
2684;SDS011;1352;48.446;9.156;2022-10-31T01:04:45;6.90;;;4.97;;
2684;SDS011;1352;48.446;9.156;2022-10-31T01:07:12;6.37;;;3.83;;
2684;SDS011;1352;48.446;9.156;2022-10-31T01:09:39;5.80;;;4.23;;
2684;SDS011;1352;48.446;9.156;2022-10-31T01:12:08;5.00;;;3.67;;
2684;SDS011;1352;48.446;9.156;2022-10-31T01:14:35;6.27;;;4.00;;
2684;SDS011;1352;48.446;9.156;2022-10-31T01:17:02;7.87;;;4.80;;
2684;SDS011;1352;48.446;9.156;2022-10-31T01:19:29;7.27;;;4.17;;
2684;SDS011;1352;48.446;9.156;2022-10-31T01:21:56;5.20;;;4.00;;
2684;SDS011;1352;48.446;9.156;2022-10-31T01:24:23;7.77;;;4.63;;
2684;SDS011;1352;48.446;9.156;2022-10-31T01:26:50;8.20;;;3.93;;
2684;SDS011;1352;48.446;9.156;2022-10-31T01:29:19;4.70;;;3.70;;
2684;SDS011;1352;48.446;9.156;2022-10-31T01:31:46;5.50;;;3.90;;
2684;SDS011;1352;48.446;9.156;2022-10-31T01:34:13;5.80;;;3.53;;
2684;SDS011;1352;48.446;9.156;2022-10-31T01:36:42;6.47;;;4.27;;
2684;SDS011;1352;48.446;9.156;2022-10-31T01:39:13;6.60;;;4.33;;
2684;SDS011;1352;48.446;9.156;2022-10-31T01:41:42;5.20;;;4.47;;
2684;SDS011;1352;48.446;9.156;2022-10-31T01:47:17;8.20;;;5.20;;
2684;SDS011;1352;48.446;9.156;2022-10-31T01:49:48;6.93;;;4.37;;
2684;SDS011;1352;48.446;9.156;2022-10-31T01:52:20;8.40;;;4.60;;
2684;SDS011;1352;48.446;9.156;2022-10-31T01:54:51;8.43;;;4.40;;
2684;SDS011;1352;48.446;9.156;2022-10-31T01:57:23;5.70;;;4.00;;
2684;SDS011;1352;48.446;9.156;2022-10-31T01:59:53;8.07;;;4.90;;
2684;SDS011;1352;48.446;9.156;2022-10-31T02:02:23;6.30;;;4.50;;
2684;SDS011;1352;48.446;9.156;2022-10-31T02:04:54;7.30;;;4.27;;
2684;SDS011;1352;48.446;9.156;2022-10-31T02:07:23;7.63;;;4.93;;
2684;SDS011;1352;48.446;9.156;2022-10-31T02:09:53;7.60;;;4.37;;
2684;SDS011;1352;48.446;9.156;2022-10-31T02:12:22;8.00;;;4.77;;
2684;SDS011;1352;48.446;9.156;2022-10-31T02:14:49;7.60;;;4.53;;
2684;SDS011;1352;48.446;9.156;2022-10-31T02:17:18;6.03;;;4.50;;
2684;SDS011;1352;48.446;9.156;2022-10-31T02:19:50;9.37;;;4.73;;
2684;SDS011;1352;48.446;9.156;2022-10-31T02:22:24;6.43;;;4.40;;
2684;SDS011;1352;48.446;9.156;2022-10-31T02:24:58;7.33;;;4.00;;
2684;SDS011;1352;48.446;9.156;2022-10-31T02:27:42;5.67;;;4.23;;
2684;SDS011;1352;48.446;9.156;2022-10-31T02:30:34;5.00;;;4.20;;
2684;SDS011;1352;48.446;9.156;2022-10-31T02:33:13;7.50;;;4.30;;
2684;SDS011;1352;48.446;9.156;2022-10-31T02:38:45;5.47;;;4.60;;
2684;SDS011;1352;48.446;9.156;2022-10-31T02:41:19;9.70;;;3.97;;
2684;SDS011;1352;48.446;9.156;2022-10-31T02:43:56;13.47;;;4.93;;
2684;SDS011;1352;48.446;9.156;2022-10-31T02:46:32;6.07;;;4.60;;
2684;SDS011;1352;48.446;9.156;2022-10-31T02:49:07;7.70;;;4.80;;
2684;SDS011;1352;48.446;9.156;2022-10-31T02:51:42;7.90;;;4.10;;
2684;SDS011;1352;48.446;9.156;2022-10-31T02:54:19;5.50;;;4.20;;
2684;SDS011;1352;48.446;9.156;2022-10-31T02:56:49;6.00;;;4.03;;
2684;SDS011;1352;48.446;9.156;2022-10-31T02:59:19;7.70;;;4.63;;
2684;SDS011;1352;48.446;9.156;2022-10-31T03:02:09;4.23;;;3.77;;
2684;SDS011;1352;48.446;9.156;2022-10-31T03:07:57;7.90;;;4.90;;
2684;SDS011;1352;48.446;9.156;2022-10-31T03:10:35;5.17;;;3.80;;
2684;SDS011;1352;48.446;9.156;2022-10-31T03:13:10;11.03;;;4.50;;
2684;SDS011;1352;48.446;9.156;2022-10-31T03:15:48;6.50;;;4.67;;
2684;SDS011;1352;48.446;9.156;2022-10-31T03:18:19;8.23;;;4.83;;
2684;SDS011;1352;48.446;9.156;2022-10-31T03:20:54;5.23;;;4.73;;
2684;SDS011;1352;48.446;9.156;2022-10-31T03:23:25;6.70;;;4.67;;
2684;SDS011;1352;48.446;9.156;2022-10-31T03:25:55;6.60;;;4.60;;
2684;SDS011;1352;48.446;9.156;2022-10-31T03:28:22;7.10;;;5.40;;
2684;SDS011;1352;48.446;9.156;2022-10-31T03:30:54;9.63;;;6.03;;
2684;SDS011;1352;48.446;9.156;2022-10-31T03:33:26;6.17;;;5.57;;
2684;SDS011;1352;48.446;9.156;2022-10-31T03:35:59;9.73;;;6.07;;
2684;SDS011;1352;48.446;9.156;2022-10-31T03:38:29;5.10;;;4.67;;
2684;SDS011;1352;48.446;9.156;2022-10-31T03:40:58;8.53;;;5.20;;
2684;SDS011;1352;48.446;9.156;2022-10-31T03:43:30;7.67;;;4.90;;
2684;SDS011;1352;48.446;9.156;2022-10-31T03:46:03;7.00;;;4.87;;
2684;SDS011;1352;48.446;9.156;2022-10-31T03:48:31;10.60;;;4.83;;
2684;SDS011;1352;48.446;9.156;2022-10-31T03:51:02;6.83;;;5.00;;
2684;SDS011;1352;48.446;9.156;2022-10-31T03:53:38;7.27;;;5.60;;
2684;SDS011;1352;48.446;9.156;2022-10-31T03:56:12;7.70;;;4.43;;
2684;SDS011;1352;48.446;9.156;2022-10-31T03:58:47;8.27;;;4.90;;
2684;SDS011;1352;48.446;9.156;2022-10-31T04:01:21;8.67;;;4.50;;
2684;SDS011;1352;48.446;9.156;2022-10-31T04:03:52;5.93;;;4.83;;
2684;SDS011;1352;48.446;9.156;2022-10-31T04:06:21;6.73;;;5.37;;
2684;SDS011;1352;48.446;9.156;2022-10-31T04:08:51;6.63;;;4.73;;
2684;SDS011;1352;48.446;9.156;2022-10-31T04:11:24;9.00;;;5.20;;
2684;SDS011;1352;48.446;9.156;2022-10-31T04:13:56;12.17;;;4.97;;
2684;SDS011;1352;48.446;9.156;2022-10-31T04:16:26;6.93;;;4.83;;
2684;SDS011;1352;48.446;9.156;2022-10-31T04:18:53;6.63;;;5.33;;
2684;SDS011;1352;48.446;9.156;2022-10-31T04:21:27;6.70;;;4.77;;
2684;SDS011;1352;48.446;9.156;2022-10-31T04:23:55;9.87;;;5.07;;
2684;SDS011;1352;48.446;9.156;2022-10-31T04:26:23;9.50;;;4.80;;
2684;SDS011;1352;48.446;9.156;2022-10-31T04:28:50;7.10;;;4.83;;
2684;SDS011;1352;48.446;9.156;2022-10-31T04:31:17;6.90;;;4.93;;
2684;SDS011;1352;48.446;9.156;2022-10-31T04:33:44;5.50;;;5.00;;
2684;SDS011;1352;48.446;9.156;2022-10-31T04:36:11;9.83;;;5.97;;
2684;SDS011;1352;48.446;9.156;2022-10-31T04:38:39;8.17;;;5.80;;
2684;SDS011;1352;48.446;9.156;2022-10-31T04:41:06;5.60;;;4.63;;
2684;SDS011;1352;48.446;9.156;2022-10-31T04:43:33;6.83;;;4.60;;
2684;SDS011;1352;48.446;9.156;2022-10-31T04:46:01;6.87;;;4.00;;
2684;SDS011;1352;48.446;9.156;2022-10-31T04:48:28;11.43;;;5.03;;
2684;SDS011;1352;48.446;9.156;2022-10-31T04:50:58;9.00;;;4.53;;
2684;SDS011;1352;48.446;9.156;2022-10-31T04:53:26;9.03;;;5.27;;
2684;SDS011;1352;48.446;9.156;2022-10-31T04:55:54;9.43;;;4.57;;
2684;SDS011;1352;48.446;9.156;2022-10-31T04:58:24;8.33;;;5.13;;
2684;SDS011;1352;48.446;9.156;2022-10-31T05:00:51;5.60;;;5.10;;
2684;SDS011;1352;48.446;9.156;2022-10-31T05:03:19;9.07;;;5.67;;
2684;SDS011;1352;48.446;9.156;2022-10-31T05:05:46;7.03;;;4.70;;
2684;SDS011;1352;48.446;9.156;2022-10-31T05:08:13;6.63;;;5.37;;
2684;SDS011;1352;48.446;9.156;2022-10-31T05:10:40;5.83;;;5.23;;
2684;SDS011;1352;48.446;9.156;2022-10-31T05:13:09;8.60;;;4.70;;
2684;SDS011;1352;48.446;9.156;2022-10-31T05:15:36;5.80;;;4.20;;
2684;SDS011;1352;48.446;9.156;2022-10-31T05:18:03;6.23;;;4.40;;
2684;SDS011;1352;48.446;9.156;2022-10-31T05:20:30;6.27;;;4.50;;
2684;SDS011;1352;48.446;9.156;2022-10-31T05:22:57;5.27;;;4.77;;
2684;SDS011;1352;48.446;9.156;2022-10-31T05:25:25;7.87;;;5.07;;
2684;SDS011;1352;48.446;9.156;2022-10-31T05:27:54;7.87;;;4.53;;
2684;SDS011;1352;48.446;9.156;2022-10-31T05:30:24;10.53;;;4.40;;
2684;SDS011;1352;48.446;9.156;2022-10-31T05:32:53;7.40;;;5.17;;
2684;SDS011;1352;48.446;9.156;2022-10-31T05:35:22;7.80;;;5.17;;
2684;SDS011;1352;48.446;9.156;2022-10-31T05:37:50;4.93;;;4.30;;
2684;SDS011;1352;48.446;9.156;2022-10-31T05:40:18;11.93;;;5.03;;
2684;SDS011;1352;48.446;9.156;2022-10-31T05:42:46;7.00;;;4.43;;
2684;SDS011;1352;48.446;9.156;2022-10-31T05:45:14;5.50;;;5.00;;
2684;SDS011;1352;48.446;9.156;2022-10-31T05:47:50;8.23;;;4.80;;
2684;SDS011;1352;48.446;9.156;2022-10-31T05:50:21;5.83;;;4.33;;
2684;SDS011;1352;48.446;9.156;2022-10-31T05:52:54;8.80;;;5.13;;
2684;SDS011;1352;48.446;9.156;2022-10-31T05:55:24;5.60;;;4.77;;
2684;SDS011;1352;48.446;9.156;2022-10-31T05:57:52;8.00;;;4.87;;
2684;SDS011;1352;48.446;9.156;2022-10-31T06:00:19;7.03;;;4.93;;
2684;SDS011;1352;48.446;9.156;2022-10-31T06:02:46;9.67;;;4.80;;
2684;SDS011;1352;48.446;9.156;2022-10-31T06:05:15;7.17;;;5.00;;
2684;SDS011;1352;48.446;9.156;2022-10-31T06:07:42;8.17;;;4.47;;
2684;SDS011;1352;48.446;9.156;2022-10-31T06:10:10;7.10;;;4.60;;
2684;SDS011;1352;48.446;9.156;2022-10-31T06:12:36;7.63;;;4.90;;
2684;SDS011;1352;48.446;9.156;2022-10-31T06:15:06;7.80;;;4.50;;
2684;SDS011;1352;48.446;9.156;2022-10-31T06:17:34;6.63;;;5.10;;
2684;SDS011;1352;48.446;9.156;2022-10-31T06:20:02;6.20;;;4.97;;
2684;SDS011;1352;48.446;9.156;2022-10-31T06:22:32;4.93;;;4.43;;
2684;SDS011;1352;48.446;9.156;2022-10-31T06:24:59;9.70;;;6.23;;
2684;SDS011;1352;48.446;9.156;2022-10-31T06:27:26;10.23;;;5.27;;
2684;SDS011;1352;48.446;9.156;2022-10-31T06:29:53;6.23;;;4.80;;
2684;SDS011;1352;48.446;9.156;2022-10-31T06:32:20;11.33;;;5.23;;
2684;SDS011;1352;48.446;9.156;2022-10-31T06:34:48;5.63;;;4.77;;
2684;SDS011;1352;48.446;9.156;2022-10-31T06:37:15;6.70;;;5.07;;
2684;SDS011;1352;48.446;9.156;2022-10-31T06:39:43;7.60;;;4.30;;
2684;SDS011;1352;48.446;9.156;2022-10-31T06:42:11;8.23;;;5.27;;
2684;SDS011;1352;48.446;9.156;2022-10-31T06:44:38;5.57;;;5.03;;
2684;SDS011;1352;48.446;9.156;2022-10-31T06:47:05;7.00;;;4.73;;
2684;SDS011;1352;48.446;9.156;2022-10-31T06:49:32;8.63;;;5.30;;
2684;SDS011;1352;48.446;9.156;2022-10-31T06:51:59;4.87;;;4.40;;
2684;SDS011;1352;48.446;9.156;2022-10-31T06:54:26;8.70;;;5.37;;
2684;SDS011;1352;48.446;9.156;2022-10-31T06:56:54;6.20;;;4.57;;
2684;SDS011;1352;48.446;9.156;2022-10-31T06:59:21;7.17;;;5.20;;
2684;SDS011;1352;48.446;9.156;2022-10-31T07:01:49;8.77;;;5.80;;
2684;SDS011;1352;48.446;9.156;2022-10-31T07:04:16;7.37;;;4.87;;
2684;SDS011;1352;48.446;9.156;2022-10-31T07:06:46;8.13;;;5.50;;
2684;SDS011;1352;48.446;9.156;2022-10-31T07:09:13;6.43;;;4.27;;
2684;SDS011;1352;48.446;9.156;2022-10-31T07:11:40;6.47;;;4.57;;
2684;SDS011;1352;48.446;9.156;2022-10-31T07:14:08;6.00;;;4.77;;
2684;SDS011;1352;48.446;9.156;2022-10-31T07:16:35;6.83;;;5.33;;
2684;SDS011;1352;48.446;9.156;2022-10-31T07:19:07;7.33;;;4.43;;
2684;SDS011;1352;48.446;9.156;2022-10-31T07:21:34;7.93;;;4.40;;
2684;SDS011;1352;48.446;9.156;2022-10-31T07:24:01;8.70;;;5.80;;
2684;SDS011;1352;48.446;9.156;2022-10-31T07:26:28;6.33;;;5.23;;
2684;SDS011;1352;48.446;9.156;2022-10-31T07:28:55;5.37;;;3.93;;
2684;SDS011;1352;48.446;9.156;2022-10-31T07:31:23;6.83;;;4.70;;
2684;SDS011;1352;48.446;9.156;2022-10-31T07:33:50;13.67;;;5.60;;
2684;SDS011;1352;48.446;9.156;2022-10-31T07:36:18;14.77;;;5.33;;
2684;SDS011;1352;48.446;9.156;2022-10-31T07:38:45;5.23;;;4.40;;
2684;SDS011;1352;48.446;9.156;2022-10-31T07:41:12;7.03;;;5.00;;
2684;SDS011;1352;48.446;9.156;2022-10-31T07:43:39;5.80;;;4.13;;
2684;SDS011;1352;48.446;9.156;2022-10-31T07:46:06;6.73;;;4.70;;
2684;SDS011;1352;48.446;9.156;2022-10-31T07:48:34;8.63;;;4.97;;
2684;SDS011;1352;48.446;9.156;2022-10-31T07:51:01;5.50;;;5.00;;
2684;SDS011;1352;48.446;9.156;2022-10-31T07:53:28;9.47;;;4.53;;
2684;SDS011;1352;48.446;9.156;2022-10-31T07:55:55;7.07;;;4.67;;
2684;SDS011;1352;48.446;9.156;2022-10-31T07:58:22;11.83;;;5.53;;
2684;SDS011;1352;48.446;9.156;2022-10-31T08:00:50;8.10;;;5.33;;
2684;SDS011;1352;48.446;9.156;2022-10-31T08:03:17;10.10;;;5.60;;
2684;SDS011;1352;48.446;9.156;2022-10-31T08:05:46;6.50;;;5.47;;
2684;SDS011;1352;48.446;9.156;2022-10-31T08:08:14;6.03;;;4.90;;
2684;SDS011;1352;48.446;9.156;2022-10-31T08:10:41;10.50;;;5.47;;
2684;SDS011;1352;48.446;9.156;2022-10-31T08:13:09;7.33;;;5.37;;
2684;SDS011;1352;48.446;9.156;2022-10-31T08:15:37;8.00;;;5.23;;
2684;SDS011;1352;48.446;9.156;2022-10-31T08:18:07;5.87;;;5.10;;
2684;SDS011;1352;48.446;9.156;2022-10-31T08:20:38;7.33;;;4.73;;
2684;SDS011;1352;48.446;9.156;2022-10-31T08:23:06;5.73;;;4.80;;
2684;SDS011;1352;48.446;9.156;2022-10-31T08:25:36;7.17;;;4.73;;
2684;SDS011;1352;48.446;9.156;2022-10-31T08:28:03;8.40;;;5.40;;
2684;SDS011;1352;48.446;9.156;2022-10-31T08:30:32;7.90;;;5.63;;
2684;SDS011;1352;48.446;9.156;2022-10-31T08:33:00;8.90;;;5.10;;
2684;SDS011;1352;48.446;9.156;2022-10-31T08:35:28;8.50;;;5.70;;
2684;SDS011;1352;48.446;9.156;2022-10-31T08:37:55;7.60;;;5.17;;
2684;SDS011;1352;48.446;9.156;2022-10-31T08:40:25;12.50;;;5.30;;
2684;SDS011;1352;48.446;9.156;2022-10-31T08:42:56;9.63;;;5.33;;
2684;SDS011;1352;48.446;9.156;2022-10-31T08:45:24;7.43;;;5.30;;
2684;SDS011;1352;48.446;9.156;2022-10-31T08:47:51;6.63;;;4.77;;
2684;SDS011;1352;48.446;9.156;2022-10-31T08:50:18;7.57;;;5.57;;
2684;SDS011;1352;48.446;9.156;2022-10-31T08:52:45;7.03;;;4.47;;
2684;SDS011;1352;48.446;9.156;2022-10-31T08:55:12;6.93;;;4.87;;
2684;SDS011;1352;48.446;9.156;2022-10-31T08:57:41;10.73;;;5.77;;
2684;SDS011;1352;48.446;9.156;2022-10-31T09:00:08;6.10;;;5.50;;
2684;SDS011;1352;48.446;9.156;2022-10-31T09:02:36;7.40;;;5.37;;
2684;SDS011;1352;48.446;9.156;2022-10-31T09:05:04;6.33;;;4.73;;
2684;SDS011;1352;48.446;9.156;2022-10-31T09:07:31;10.10;;;5.43;;
2684;SDS011;1352;48.446;9.156;2022-10-31T09:09:58;7.70;;;5.30;;
2684;SDS011;1352;48.446;9.156;2022-10-31T09:12:25;7.83;;;5.80;;
2684;SDS011;1352;48.446;9.156;2022-10-31T09:14:54;12.10;;;6.03;;
2684;SDS011;1352;48.446;9.156;2022-10-31T09:17:21;11.37;;;6.33;;
2684;SDS011;1352;48.446;9.156;2022-10-31T09:19:48;11.73;;;5.90;;
2684;SDS011;1352;48.446;9.156;2022-10-31T09:22:14;7.37;;;6.50;;
2684;SDS011;1352;48.446;9.156;2022-10-31T09:24:42;6.10;;;5.10;;
2684;SDS011;1352;48.446;9.156;2022-10-31T09:27:09;7.60;;;5.23;;
2684;SDS011;1352;48.446;9.156;2022-10-31T09:29:36;7.63;;;4.43;;
2684;SDS011;1352;48.446;9.156;2022-10-31T09:32:04;10.83;;;5.50;;
2684;SDS011;1352;48.446;9.156;2022-10-31T09:34:31;7.07;;;4.60;;
2684;SDS011;1352;48.446;9.156;2022-10-31T09:36:58;8.23;;;5.37;;
2684;SDS011;1352;48.446;9.156;2022-10-31T09:39:25;11.67;;;5.40;;
2684;SDS011;1352;48.446;9.156;2022-10-31T09:41:58;8.27;;;5.30;;
2684;SDS011;1352;48.446;9.156;2022-10-31T09:44:39;11.47;;;5.90;;
2684;SDS011;1352;48.446;9.156;2022-10-31T09:47:27;6.20;;;4.63;;
2684;SDS011;1352;48.446;9.156;2022-10-31T09:50:09;6.40;;;4.20;;
2684;SDS011;1352;48.446;9.156;2022-10-31T09:52:43;9.60;;;5.30;;
2684;SDS011;1352;48.446;9.156;2022-10-31T09:55:19;8.70;;;4.67;;
2684;SDS011;1352;48.446;9.156;2022-10-31T09:57:50;7.70;;;4.40;;
2684;SDS011;1352;48.446;9.156;2022-10-31T10:00:19;6.03;;;4.90;;
2684;SDS011;1352;48.446;9.156;2022-10-31T10:02:49;6.00;;;4.83;;
2684;SDS011;1352;48.446;9.156;2022-10-31T10:05:24;8.03;;;4.80;;
2684;SDS011;1352;48.446;9.156;2022-10-31T10:07:59;5.60;;;4.90;;
2684;SDS011;1352;48.446;9.156;2022-10-31T10:10:37;8.07;;;5.40;;
2684;SDS011;1352;48.446;9.156;2022-10-31T10:13:22;8.50;;;4.87;;
2684;SDS011;1352;48.446;9.156;2022-10-31T10:16:04;7.87;;;4.67;;
2684;SDS011;1352;48.446;9.156;2022-10-31T10:18:50;6.70;;;4.57;;
2684;SDS011;1352;48.446;9.156;2022-10-31T10:21:28;8.57;;;5.13;;
2684;SDS011;1352;48.446;9.156;2022-10-31T10:24:09;9.23;;;4.83;;
2684;SDS011;1352;48.446;9.156;2022-10-31T10:26:53;5.80;;;4.20;;
2684;SDS011;1352;48.446;9.156;2022-10-31T10:29:33;9.90;;;5.63;;
2684;SDS011;1352;48.446;9.156;2022-10-31T10:32:09;8.50;;;5.00;;
2684;SDS011;1352;48.446;9.156;2022-10-31T10:34:45;8.53;;;4.70;;
2684;SDS011;1352;48.446;9.156;2022-10-31T10:37:19;5.90;;;5.00;;
2684;SDS011;1352;48.446;9.156;2022-10-31T10:39:52;7.63;;;5.60;;
2684;SDS011;1352;48.446;9.156;2022-10-31T10:42:23;6.63;;;4.50;;
2684;SDS011;1352;48.446;9.156;2022-10-31T10:45:14;5.23;;;4.63;;
2684;SDS011;1352;48.446;9.156;2022-10-31T10:48:06;7.87;;;4.93;;
2684;SDS011;1352;48.446;9.156;2022-10-31T10:50:41;9.30;;;4.70;;
2684;SDS011;1352;48.446;9.156;2022-10-31T10:53:17;7.20;;;4.40;;
2684;SDS011;1352;48.446;9.156;2022-10-31T10:56:15;10.30;;;4.97;;
2684;SDS011;1352;48.446;9.156;2022-10-31T10:58:44;8.70;;;4.70;;
2684;SDS011;1352;48.446;9.156;2022-10-31T11:01:12;6.57;;;4.90;;
2684;SDS011;1352;48.446;9.156;2022-10-31T11:03:41;7.17;;;6.10;;
2684;SDS011;1352;48.446;9.156;2022-10-31T11:06:18;5.27;;;4.70;;
2684;SDS011;1352;48.446;9.156;2022-10-31T11:08:47;9.30;;;4.03;;
2684;SDS011;1352;48.446;9.156;2022-10-31T11:11:19;7.73;;;4.77;;
2684;SDS011;1352;48.446;9.156;2022-10-31T11:13:55;9.07;;;4.93;;
2684;SDS011;1352;48.446;9.156;2022-10-31T11:16:29;6.73;;;5.10;;
2684;SDS011;1352;48.446;9.156;2022-10-31T11:19:06;6.93;;;4.43;;
2684;SDS011;1352;48.446;9.156;2022-10-31T11:21:44;8.17;;;5.60;;
2684;SDS011;1352;48.446;9.156;2022-10-31T11:24:15;8.97;;;5.43;;
2684;SDS011;1352;48.446;9.156;2022-10-31T11:26:47;6.80;;;5.03;;
2684;SDS011;1352;48.446;9.156;2022-10-31T11:29:16;6.43;;;4.33;;
2684;SDS011;1352;48.446;9.156;2022-10-31T11:31:46;7.00;;;4.80;;
2684;SDS011;1352;48.446;9.156;2022-10-31T11:34:16;6.73;;;4.80;;
2684;SDS011;1352;48.446;9.156;2022-10-31T11:36:54;8.23;;;5.27;;
2684;SDS011;1352;48.446;9.156;2022-10-31T11:39:25;6.73;;;4.57;;
2684;SDS011;1352;48.446;9.156;2022-10-31T11:41:53;8.53;;;5.30;;
2684;SDS011;1352;48.446;9.156;2022-10-31T11:44:22;8.50;;;4.77;;
2684;SDS011;1352;48.446;9.156;2022-10-31T11:46:52;9.07;;;5.23;;
2684;SDS011;1352;48.446;9.156;2022-10-31T11:49:24;12.63;;;5.30;;
2684;SDS011;1352;48.446;9.156;2022-10-31T11:51:57;8.30;;;5.67;;
2684;SDS011;1352;48.446;9.156;2022-10-31T11:54:28;6.67;;;4.90;;
2684;SDS011;1352;48.446;9.156;2022-10-31T11:57:00;7.57;;;4.97;;
2684;SDS011;1352;48.446;9.156;2022-10-31T11:59:28;8.57;;;5.00;;
2684;SDS011;1352;48.446;9.156;2022-10-31T12:01:57;12.37;;;8.73;;
2684;SDS011;1352;48.446;9.156;2022-10-31T12:04:38;16.33;;;9.97;;
2684;SDS011;1352;48.446;9.156;2022-10-31T12:07:12;15.37;;;10.80;;
2684;SDS011;1352;48.446;9.156;2022-10-31T12:09:39;15.30;;;11.03;;
2684;SDS011;1352;48.446;9.156;2022-10-31T12:15:00;17.33;;;9.57;;
2684;SDS011;1352;48.446;9.156;2022-10-31T12:17:37;15.63;;;8.17;;
2684;SDS011;1352;48.446;9.156;2022-10-31T12:20:12;8.00;;;6.37;;
2684;SDS011;1352;48.446;9.156;2022-10-31T12:22:52;8.43;;;6.43;;
2684;SDS011;1352;48.446;9.156;2022-10-31T12:25:29;12.80;;;6.57;;
2684;SDS011;1352;48.446;9.156;2022-10-31T12:28:18;15.30;;;7.00;;
2684;SDS011;1352;48.446;9.156;2022-10-31T12:31:14;9.10;;;6.20;;
2684;SDS011;1352;48.446;9.156;2022-10-31T12:33:54;14.37;;;7.20;;
2684;SDS011;1352;48.446;9.156;2022-10-31T12:36:40;11.60;;;7.60;;
2684;SDS011;1352;48.446;9.156;2022-10-31T12:39:22;15.30;;;9.20;;
2684;SDS011;1352;48.446;9.156;2022-10-31T12:41:52;10.47;;;6.90;;
2684;SDS011;1352;48.446;9.156;2022-10-31T12:50:44;13.40;;;8.73;;
2684;SDS011;1352;48.446;9.156;2022-10-31T12:53:22;14.13;;;7.60;;
2684;SDS011;1352;48.446;9.156;2022-10-31T12:56:05;12.70;;;9.00;;
2684;SDS011;1352;48.446;9.156;2022-10-31T12:58:43;11.77;;;9.20;;
2684;SDS011;1352;48.446;9.156;2022-10-31T13:01:18;10.83;;;9.47;;
2684;SDS011;1352;48.446;9.156;2022-10-31T13:03:51;11.63;;;8.87;;
2684;SDS011;1352;48.446;9.156;2022-10-31T13:06:24;12.13;;;8.70;;
2684;SDS011;1352;48.446;9.156;2022-10-31T13:08:57;7.87;;;6.63;;
2684;SDS011;1352;48.446;9.156;2022-10-31T13:11:28;13.70;;;7.57;;
2684;SDS011;1352;48.446;9.156;2022-10-31T13:14:00;12.70;;;7.07;;
2684;SDS011;1352;48.446;9.156;2022-10-31T13:16:33;10.90;;;5.93;;
2684;SDS011;1352;48.446;9.156;2022-10-31T13:19:05;6.40;;;5.80;;
2684;SDS011;1352;48.446;9.156;2022-10-31T13:21:41;7.90;;;5.63;;
2684;SDS011;1352;48.446;9.156;2022-10-31T13:24:16;10.60;;;5.50;;
2684;SDS011;1352;48.446;9.156;2022-10-31T13:26:50;11.70;;;6.70;;
2684;SDS011;1352;48.446;9.156;2022-10-31T13:29:21;7.97;;;6.03;;
2684;SDS011;1352;48.446;9.156;2022-10-31T13:31:52;7.40;;;5.40;;
2684;SDS011;1352;48.446;9.156;2022-10-31T13:34:23;8.10;;;6.23;;
2684;SDS011;1352;48.446;9.156;2022-10-31T13:37:00;7.60;;;5.60;;
2684;SDS011;1352;48.446;9.156;2022-10-31T13:39:38;6.13;;;5.10;;
2684;SDS011;1352;48.446;9.156;2022-10-31T13:42:15;8.50;;;5.37;;
2684;SDS011;1352;48.446;9.156;2022-10-31T13:44:48;9.00;;;6.67;;
2684;SDS011;1352;48.446;9.156;2022-10-31T13:47:22;9.60;;;5.20;;
2684;SDS011;1352;48.446;9.156;2022-10-31T13:49:51;8.20;;;5.57;;
2684;SDS011;1352;48.446;9.156;2022-10-31T13:52:30;7.47;;;5.43;;
2684;SDS011;1352;48.446;9.156;2022-10-31T13:54:57;7.97;;;5.80;;
2684;SDS011;1352;48.446;9.156;2022-10-31T13:57:31;7.50;;;5.67;;
2684;SDS011;1352;48.446;9.156;2022-10-31T14:00:03;7.90;;;5.63;;
2684;SDS011;1352;48.446;9.156;2022-10-31T14:02:33;9.60;;;5.07;;
2684;SDS011;1352;48.446;9.156;2022-10-31T14:05:03;10.83;;;5.87;;
2684;SDS011;1352;48.446;9.156;2022-10-31T14:07:33;9.23;;;6.10;;
2684;SDS011;1352;48.446;9.156;2022-10-31T14:10:01;7.07;;;5.20;;
2684;SDS011;1352;48.446;9.156;2022-10-31T14:12:33;9.57;;;5.10;;
2684;SDS011;1352;48.446;9.156;2022-10-31T14:15:04;8.33;;;5.70;;
2684;SDS011;1352;48.446;9.156;2022-10-31T14:17:47;8.27;;;5.43;;
2684;SDS011;1352;48.446;9.156;2022-10-31T14:23:12;9.10;;;5.50;;
2684;SDS011;1352;48.446;9.156;2022-10-31T14:26:06;11.40;;;5.10;;
2684;SDS011;1352;48.446;9.156;2022-10-31T14:28:47;7.17;;;5.83;;
2684;SDS011;1352;48.446;9.156;2022-10-31T14:31:27;9.00;;;7.00;;
2684;SDS011;1352;48.446;9.156;2022-10-31T14:34:00;6.90;;;6.27;;
2684;SDS011;1352;48.446;9.156;2022-10-31T14:36:34;12.97;;;5.93;;
2684;SDS011;1352;48.446;9.156;2022-10-31T14:39:14;9.43;;;6.43;;
2684;SDS011;1352;48.446;9.156;2022-10-31T14:41:53;11.27;;;7.10;;
2684;SDS011;1352;48.446;9.156;2022-10-31T14:44:37;8.33;;;6.20;;
2684;SDS011;1352;48.446;9.156;2022-10-31T14:47:27;7.67;;;5.83;;
2684;SDS011;1352;48.446;9.156;2022-10-31T14:52:56;10.87;;;6.80;;
2684;SDS011;1352;48.446;9.156;2022-10-31T14:55:27;9.53;;;7.20;;
2684;SDS011;1352;48.446;9.156;2022-10-31T14:57:54;11.30;;;7.93;;
2684;SDS011;1352;48.446;9.156;2022-10-31T15:00:26;15.30;;;11.70;;
2684;SDS011;1352;48.446;9.156;2022-10-31T15:03:01;19.60;;;16.83;;
2684;SDS011;1352;48.446;9.156;2022-10-31T15:05:34;67.50;;;43.37;;
2684;SDS011;1352;48.446;9.156;2022-10-31T15:08:12;86.77;;;49.87;;
2684;SDS011;1352;48.446;9.156;2022-10-31T15:10:44;29.17;;;19.40;;
2684;SDS011;1352;48.446;9.156;2022-10-31T15:13:17;20.93;;;12.50;;
2684;SDS011;1352;48.446;9.156;2022-10-31T15:15:48;11.23;;;7.00;;
2684;SDS011;1352;48.446;9.156;2022-10-31T15:18:19;7.00;;;6.30;;
2684;SDS011;1352;48.446;9.156;2022-10-31T15:20:49;9.70;;;5.70;;
2684;SDS011;1352;48.446;9.156;2022-10-31T15:23:20;9.87;;;6.80;;
2684;SDS011;1352;48.446;9.156;2022-10-31T15:25:49;8.53;;;5.90;;
2684;SDS011;1352;48.446;9.156;2022-10-31T15:28:21;8.37;;;6.40;;
2684;SDS011;1352;48.446;9.156;2022-10-31T15:30:53;11.23;;;7.00;;
2684;SDS011;1352;48.446;9.156;2022-10-31T15:33:22;9.60;;;6.17;;
2684;SDS011;1352;48.446;9.156;2022-10-31T15:35:56;10.37;;;6.27;;
2684;SDS011;1352;48.446;9.156;2022-10-31T15:38:25;12.17;;;6.40;;
2684;SDS011;1352;48.446;9.156;2022-10-31T15:40:54;9.37;;;6.60;;
2684;SDS011;1352;48.446;9.156;2022-10-31T15:43:23;7.20;;;5.67;;
2684;SDS011;1352;48.446;9.156;2022-10-31T15:45:56;9.10;;;6.37;;
2684;SDS011;1352;48.446;9.156;2022-10-31T15:48:27;7.10;;;6.23;;
2684;SDS011;1352;48.446;9.156;2022-10-31T15:50:57;10.20;;;6.70;;
2684;SDS011;1352;48.446;9.156;2022-10-31T15:53:25;9.93;;;5.27;;
2684;SDS011;1352;48.446;9.156;2022-10-31T15:55:57;6.33;;;5.53;;
2684;SDS011;1352;48.446;9.156;2022-10-31T15:58:27;9.37;;;5.23;;
2684;SDS011;1352;48.446;9.156;2022-10-31T16:01:00;10.33;;;6.40;;